createdAt,value
2023-04-08T05:07:34.098Z,26.63
2023-04-08T05:08:38.153Z,29.56
2023-04-08T05:17:01.511Z,26.73
2023-04-08T05:18:05.091Z,26.52
2023-04-08T05:19:12.301Z,25.85
2023-04-08T05:20:16.402Z,26.86
2023-04-08T05:21:19.437Z,29.71
2023-04-08T05:22:26.482Z,28.52
2023-04-08T05:23:28.870Z,27.32
2023-04-08T05:24:30.891Z,26.00
2023-04-08T05:25:32.670Z,25.20
2023-04-08T05:26:34.601Z,26.88
2023-04-08T05:27:36.689Z,27.44
2023-04-08T05:28:38.746Z,26.90
2023-04-08T05:29:40.592Z,25.72
2023-04-08T05:30:42.483Z,25.93
2023-04-08T05:31:44.996Z,26.21
2023-04-08T05:40:36.471Z,25.47
2023-04-08T05:41:42.581Z,24.68
2023-04-08T05:43:14.944Z,23.75
2023-04-08T05:44:18.156Z,24.85
2023-04-08T05:51:04.660Z,25.49
2023-04-08T05:53:23.838Z,26.75
2023-04-08T05:54:30.102Z,25.82
2023-04-08T05:55:33.345Z,25.96
2023-04-08T05:56:38.145Z,27.17
2023-04-08T05:58:18.237Z,26.61
2023-04-08T06:00:04.287Z,26.16
2023-04-08T06:01:13.181Z,25.99
2023-04-08T06:02:16.009Z,25.99
2023-04-08T06:03:22.950Z,25.22
2023-04-08T06:04:25.694Z,24.66
2023-04-08T06:05:30.053Z,24.84
2023-04-08T06:06:39.954Z,25.01
2023-04-08T06:07:42.006Z,26.32
2023-04-08T06:08:49.646Z,25.34
2023-04-08T06:09:51.827Z,25.82
2023-04-08T06:10:56.556Z,24.94
2023-04-08T06:11:58.810Z,25.17
2023-04-08T06:13:31.457Z,26.12
2023-04-08T06:14:33.520Z,25.14
2023-04-08T06:15:42.277Z,24.46
2023-04-08T06:16:44.462Z,24.73
2023-04-08T06:17:52.454Z,25.31
2023-04-08T06:18:59.333Z,26.73
2023-04-08T06:20:01.951Z,26.67
2023-04-08T06:21:09.343Z,26.39
2023-04-08T06:22:11.541Z,27.56
2023-04-08T06:23:47.779Z,28.37
2023-04-08T06:24:51.023Z,30.20
2023-04-08T06:26:04.268Z,30.29
2023-04-08T06:27:12.964Z,29.33
2023-04-08T06:28:15.407Z,29.48
2023-04-08T06:29:17.266Z,28.21
2023-04-08T06:30:28.674Z,26.91
2023-04-08T06:31:30.921Z,27.48
2023-04-08T06:32:32.882Z,26.65
2023-04-08T06:33:36.012Z,25.88
2023-04-08T06:34:38.265Z,25.20
2023-04-08T06:35:40.267Z,24.86
2023-04-08T06:36:45.071Z,24.81
2023-04-08T06:37:50.711Z,25.69
2023-04-08T06:38:52.732Z,27.46
2023-04-08T06:40:00.484Z,28.31
2023-04-08T06:41:36.548Z,29.26
2023-04-08T06:42:52.396Z,28.97
2023-04-08T06:44:10.833Z,26.63
2023-04-08T06:45:12.727Z,25.89
2023-04-08T06:46:14.613Z,25.20
2023-04-08T06:47:17.467Z,25.73
2023-04-08T06:48:38.692Z,26.89
2023-04-08T06:49:41.487Z,30.04
2023-04-08T06:50:44.046Z,29.19
2023-04-08T06:51:46.085Z,28.31
2023-04-08T06:52:47.912Z,27.44
2023-04-08T06:53:50.876Z,26.06
2023-04-08T06:54:52.865Z,25.47
2023-04-08T06:55:55.195Z,26.54
2023-04-08T06:56:57.097Z,27.12
2023-04-08T06:57:59.005Z,26.97
2023-04-08T06:59:06.070Z,25.13
2023-04-08T07:00:08.926Z,24.42
2023-04-08T07:01:11.211Z,24.80
2023-04-08T07:02:15.922Z,24.11
2023-04-08T07:03:43.731Z,24.62
2023-04-08T07:04:46.999Z,24.85
2023-04-08T07:05:49.129Z,23.50
2023-04-08T07:06:52.099Z,24.63
2023-04-08T07:07:55.012Z,24.39
2023-04-08T07:09:00.978Z,26.25
2023-04-08T07:10:10.808Z,28.25
2023-04-08T07:11:21.620Z,28.55
2023-04-08T07:12:23.772Z,26.90
2023-04-08T07:13:26.565Z,26.44
2023-04-08T07:14:30.252Z,28.01
2023-04-08T07:15:33.446Z,26.66
2023-04-08T07:16:35.766Z,25.54
2023-04-08T07:17:37.905Z,25.97
2023-04-08T07:18:42.677Z,27.71
2023-04-08T07:19:44.832Z,27.18
2023-04-08T07:21:19.476Z,25.29
2023-04-08T07:22:22.184Z,25.89
2023-04-08T07:23:25.836Z,25.65
2023-04-08T07:24:28.196Z,26.23
2023-04-08T07:25:33.283Z,27.33
2023-04-08T07:26:35.451Z,28.45
2023-04-08T07:27:37.552Z,25.86
2023-04-08T07:28:39.800Z,25.92
2023-04-08T07:29:41.823Z,27.69
2023-04-08T07:30:44.107Z,27.31
2023-04-08T07:31:48.824Z,28.03
2023-04-08T07:32:51.145Z,27.29
2023-04-08T07:33:56.106Z,26.74
2023-04-08T07:35:02.619Z,27.32
2023-04-08T07:36:27.732Z,27.04
2023-04-08T07:37:31.563Z,25.75
2023-04-08T07:38:59.211Z,25.11
2023-04-08T07:40:01.738Z,25.41
2023-04-08T07:41:09.669Z,24.89
2023-04-08T07:43:37.590Z,25.95
2023-04-08T07:44:40.868Z,26.21
2023-04-08T07:45:48.581Z,25.80
2023-04-08T07:48:11.293Z,25.04
2023-04-08T07:49:15.476Z,24.93
2023-04-08T07:50:17.863Z,23.91
2023-04-08T07:51:20.741Z,24.16
2023-04-08T07:52:26.834Z,23.79
2023-04-08T07:53:30.994Z,23.96
2023-04-08T07:54:34.374Z,24.13
2023-04-08T07:55:39.330Z,23.72
2023-04-08T07:56:41.327Z,25.80
2023-04-08T07:57:43.542Z,26.02
2023-04-08T07:59:50.381Z,24.74
2023-04-08T08:00:52.911Z,25.27
2023-04-08T08:01:55.368Z,26.66
2023-04-08T08:02:57.819Z,27.79
2023-04-08T08:04:00.154Z,26.01
2023-04-08T08:05:03.633Z,25.77
2023-04-08T08:06:05.992Z,24.97
2023-04-08T08:07:07.943Z,25.60
2023-04-08T08:08:13.572Z,26.53
2023-04-08T08:09:17.811Z,26.02
2023-04-08T08:10:20.496Z,28.35
2023-04-08T08:11:22.924Z,27.32
2023-04-08T08:12:25.011Z,26.53
2023-04-08T08:13:27.105Z,26.89
2023-04-08T08:14:29.502Z,27.03
2023-04-08T08:15:31.444Z,28.34
2023-04-08T08:16:36.624Z,27.48
2023-04-08T08:17:38.586Z,26.79
2023-04-08T08:18:41.422Z,27.99
2023-04-08T08:19:43.284Z,28.65
2023-04-08T08:20:45.148Z,29.71
2023-04-08T08:21:47.250Z,30.74
2023-04-08T08:22:57.105Z,29.80
2023-04-08T08:24:01.490Z,28.91
2023-04-08T08:25:10.063Z,30.27
2023-04-08T08:26:22.510Z,27.72
2023-04-08T08:27:25.239Z,27.56
2023-04-08T08:28:33.276Z,27.92
2023-04-08T08:29:35.538Z,26.94
2023-04-08T08:30:38.743Z,27.01
2023-04-08T08:31:40.959Z,27.35
2023-04-08T08:32:43.182Z,27.12
2023-04-08T08:33:46.188Z,27.01
2023-04-08T08:34:48.301Z,28.84
2023-04-08T08:35:50.312Z,27.63
2023-04-08T08:36:53.373Z,27.06
2023-04-08T08:37:55.391Z,26.75
2023-04-08T08:38:59.588Z,26.65
2023-04-08T08:40:01.554Z,26.98
2023-04-08T08:41:04.951Z,26.80
2023-04-08T08:42:07.066Z,26.66
2023-04-08T08:43:11.502Z,25.57
2023-04-08T08:45:34.051Z,25.33
2023-04-08T08:46:42.174Z,26.84
2023-04-08T08:47:46.237Z,26.41
2023-04-08T08:48:49.341Z,25.65
2023-04-08T08:51:58.516Z,27.67
2023-04-08T08:53:01.382Z,27.61
2023-04-08T08:54:06.761Z,27.92
2023-04-08T08:55:27.694Z,28.68
2023-04-08T08:56:34.812Z,28.69
2023-04-08T08:57:38.701Z,28.42
2023-04-08T09:00:41.046Z,28.51
2023-04-08T09:01:48.813Z,28.07
2023-04-08T09:02:52.350Z,27.90
2023-04-08T10:28:51.782Z,36.26
2023-04-08T12:38:29.737Z,40.01
2023-04-08T15:07:39.093Z,40.15
2023-04-08T15:08:43.184Z,40.42
2023-04-08T15:13:30.473Z,40.96
2023-04-08T15:14:33.553Z,40.85
2023-04-08T15:23:29.131Z,41.95
2023-04-08T15:30:36.906Z,42.96
2023-04-08T15:31:55.480Z,43.33
2023-04-08T15:40:07.963Z,43.30
2023-04-08T15:41:21.501Z,43.38
2023-04-08T15:42:29.552Z,43.57
2023-04-08T15:43:34.102Z,43.20
2023-04-08T15:55:16.053Z,43.97
2023-04-08T15:56:41.208Z,43.88
2023-04-08T15:59:53.088Z,43.96
2023-04-08T16:09:14.012Z,44.48
2023-04-08T16:15:02.982Z,45.15
2023-04-08T16:16:12.944Z,44.89
2023-04-08T16:17:18.122Z,45.14
2023-04-08T16:18:26.388Z,45.33
2023-04-08T16:19:32.763Z,45.27
2023-04-08T16:23:25.398Z,45.44
2023-04-08T16:24:29.392Z,45.83
2023-04-08T16:30:07.278Z,45.89
2023-04-08T16:31:13.255Z,45.94
2023-04-08T16:47:21.541Z,47.67
2023-04-08T16:48:31.481Z,47.72
2023-04-08T16:49:41.174Z,47.64
2023-04-08T16:51:59.730Z,48.17
2023-04-08T16:53:27.949Z,47.99
2023-04-08T17:04:31.768Z,48.88
